Time;durP1;ratioP1;P1;durP2;ratioP2;P2;SDS_P1;SDS_P2;PMS_P1;PMS_P2;Temp;Humidity;BMP_temperature;BMP_pressure;BME280_temperature;BME280_humidity;BME280_pressure;Samples;Min_cycle;Max_cycle;Signal;HPM_P1;HPM_P2
2022/08/26 00:01:35;;;;;;;9.88;6.20;;;23.30;62.70;;;;;;5075864;28;20056;-46
2022/08/26 00:04:01;;;;;;;13.80;6.10;;;23.30;62.80;;;;;;5075641;28;20017;-45
2022/08/26 00:06:27;;;;;;;12.30;6.43;;;23.30;63.00;;;;;;5075806;28;20096;-46
2022/08/26 00:08:53;;;;;;;9.65;6.15;;;23.20;63.20;;;;;;5075637;28;20033;-47
2022/08/26 00:11:19;;;;;;;7.05;5.50;;;23.20;63.60;;;;;;5075867;28;20051;-46
2022/08/26 00:13:44;;;;;;;10.70;6.00;;;23.10;64.00;;;;;;5075626;28;20059;-48
2022/08/26 00:16:10;;;;;;;10.10;7.38;;;23.00;64.10;;;;;;5075572;28;20339;-46
2022/08/26 00:18:37;;;;;;;8.02;5.53;;;23.00;64.40;;;;;;5075856;28;20036;-46
2022/08/26 00:21:04;;;;;;;9.27;5.95;;;22.90;64.60;;;;;;5075576;28;20025;-47
2022/08/26 00:23:30;;;;;;;10.13;5.68;;;22.90;64.80;;;;;;5075352;28;20407;-47
2022/08/26 00:25:56;;;;;;;9.20;6.38;;;22.80;64.70;;;;;;5075404;28;20054;-45
2022/08/26 00:28:21;;;;;;;11.55;5.85;;;22.90;65.00;;;;;;5075505;28;20444;-46
2022/08/26 00:30:48;;;;;;;7.93;5.68;;;22.90;65.30;;;;;;5075529;28;20024;-47
2022/08/26 00:33:15;;;;;;;10.13;6.25;;;22.80;65.50;;;;;;5073858;28;20469;-47
2022/08/26 00:35:40;;;;;;;8.30;5.43;;;22.80;65.80;;;;;;5075326;28;20027;-48
2022/08/26 00:38:06;;;;;;;7.57;5.57;;;22.60;66.10;;;;;;5075415;28;20024;-49
2022/08/26 00:40:39;;;;;;;11.55;6.95;;;22.70;65.60;;;;;;5075189;28;20108;-47
2022/08/26 00:43:06;;;;;;;12.25;7.47;;;22.70;64.60;;;;;;5075258;28;20044;-51
2022/08/26 00:45:41;;;;;;;11.60;7.50;;;22.80;63.90;;;;;;5073745;28;20021;-47
2022/08/26 00:48:08;;;;;;;9.80;7.47;;;22.80;63.80;;;;;;5075163;28;20103;-47
2022/08/26 00:50:40;;;;;;;16.08;7.72;;;22.80;63.90;;;;;;5074821;28;20083;-48
2022/08/26 00:53:20;;;;;;;8.80;6.65;;;22.70;64.10;;;;;;5075203;28;20021;-47
2022/08/26 00:55:49;;;;;;;;;;;22.70;64.10;;;;;;5075481;28;20024;-48
2022/08/26 00:58:14;;;;;;;12.43;6.05;;;22.60;64.10;;;;;;5074838;28;19905;-46
2022/08/26 01:00:40;;;;;;;9.35;6.25;;;22.60;64.10;;;;;;5074575;28;20516;-47
2022/08/26 01:03:06;;;;;;;11.52;6.72;;;22.60;64.10;;;;;;5074333;28;20376;-47
2022/08/26 01:05:32;;;;;;;12.32;7.68;;;22.70;63.90;;;;;;5074216;28;20103;-49
2022/08/26 01:07:57;;;;;;;8.05;6.55;;;22.70;63.80;;;;;;5074606;28;20417;-48
2022/08/26 01:10:26;;;;;;;11.98;6.38;;;22.80;63.90;;;;;;5074234;28;20029;-47
2022/08/26 01:12:58;;;;;;;8.90;7.15;;;22.80;63.70;;;;;;5074253;28;20025;-47
2022/08/26 01:15:30;;;;;;;11.90;7.65;;;22.80;63.00;;;;;;5074291;28;20020;-51
2022/08/26 01:17:57;;;;;;;9.90;7.60;;;22.80;63.30;;;;;;5074332;28;20151;-47
2022/08/26 01:20:30;;;;;;;10.55;7.40;;;22.80;63.20;;;;;;5072893;28;20047;-47
2022/08/26 01:23:04;;;;;;;15.75;7.75;;;22.60;63.60;;;;;;5074165;28;20419;-47
2022/08/26 01:25:33;;;;;;;15.48;7.35;;;22.70;63.60;;;;;;5073969;28;20353;-46
2022/08/26 01:28:04;;;;;;;11.95;7.68;;;22.60;63.70;;;;;;5073906;28;20044;-47
2022/08/26 01:30:31;;;;;;;11.68;8.10;;;22.50;64.20;;;;;;5074309;28;20127;-47
2022/08/26 01:33:00;;;;;;;11.73;8.55;;;22.40;64.40;;;;;;5074264;28;20461;-46
2022/08/26 01:35:26;;;;;;;14.60;9.07;;;22.40;64.70;;;;;;5073905;28;20095;-46
2022/08/26 01:37:53;;;;;;;10.77;8.13;;;22.30;64.90;;;;;;5074246;28;20025;-49
2022/08/26 01:40:26;;;;;;;11.93;7.85;;;22.20;65.70;;;;;;5074098;28;20028;-47
2022/08/26 01:42:53;;;;;;;10.50;8.23;;;22.00;66.10;;;;;;5073884;28;20468;-48
2022/08/26 01:45:24;;;;;;;9.98;7.80;;;21.90;66.40;;;;;;5073899;28;20020;-47
2022/08/26 01:47:52;;;;;;;14.73;8.35;;;22.00;66.40;;;;;;5073536;28;20051;-46
2022/08/26 01:50:23;;;;;;;13.73;9.00;;;21.80;67.30;;;;;;5073100;28;20054;-46
2022/08/26 01:52:50;;;;;;;13.60;10.48;;;21.70;67.50;;;;;;5073472;28;20027;-49
2022/08/26 01:55:19;;;;;;;13.00;10.35;;;21.60;67.80;;;;;;5073557;28;20044;-47
2022/08/26 01:57:47;;;;;;;16.08;10.50;;;21.60;68.30;;;;;;5073475;28;20464;-48
2022/08/26 02:00:13;;;;;;;18.00;11.38;;;21.50;68.80;;;;;;5072719;28;20058;-47
2022/08/26 02:02:44;;;;;;;16.85;11.88;;;21.40;69.30;;;;;;5073426;28;20024;-47
2022/08/26 02:05:15;;;;;;;22.63;14.05;;;21.40;69.20;;;;;;5073461;28;20032;-47
2022/08/26 02:07:42;;;;;;;19.50;13.95;;;21.30;69.70;;;;;;5073139;28;20148;-47
2022/08/26 02:10:08;;;;;;;23.30;15.50;;;21.30;70.80;;;;;;5072961;28;20070;-47
2022/08/26 02:12:35;;;;;;;21.33;14.07;;;21.20;71.10;;;;;;5072894;28;20117;-45
2022/08/26 02:15:05;;;;;;;21.42;15.13;;;21.10;71.70;;;;;;5072925;28;20027;-47
2022/08/26 02:17:41;;;;;;;22.20;16.35;;;20.90;72.30;;;;;;5072985;28;20021;-46
2022/08/26 02:20:07;;;;;;;26.95;19.38;;;20.80;73.00;;;;;;5072863;28;20025;-46
2022/08/26 02:22:34;;;;;;;28.40;18.17;;;20.80;73.40;;;;;;5073055;28;20044;-46
2022/08/26 02:25:25;;;;;;;28.30;20.58;;;20.80;73.60;;;;;;5071522;28;20062;-46
2022/08/26 02:27:52;;;;;;;35.55;22.92;;;20.90;73.70;;;;;;5071516;28;20028;-48
2022/08/26 02:30:24;;;;;;;31.45;24.05;;;20.90;74.10;;;;;;5073359;28;20077;-46
2022/08/26 02:32:50;;;;;;;35.17;24.83;;;20.90;74.30;;;;;;5073255;28;20161;-46
2022/08/26 02:35:19;;;;;;;33.25;25.25;;;20.80;75.40;;;;;;5072915;28;20036;-47
2022/08/26 02:37:45;;;;;;;35.13;27.73;;;20.80;75.90;;;;;;5073008;28;20058;-47
2022/08/26 02:40:14;;;;;;;44.72;28.85;;;20.80;76.10;;;;;;5073451;28;20032;-46
2022/08/26 02:42:39;;;;;;;41.33;31.63;;;20.80;76.20;;;;;;5072810;28;20091;-48
2022/08/26 02:45:06;;;;;;;38.65;30.40;;;20.70;76.70;;;;;;5072901;28;20054;-47
2022/08/26 02:47:32;;;;;;;39.45;32.05;;;20.70;77.50;;;;;;5072673;28;20020;-46
2022/08/26 02:49:58;;;;;;;45.90;32.13;;;20.60;77.70;;;;;;5072907;28;20029;-46
2022/08/26 02:52:24;;;;;;;43.97;35.20;;;20.50;78.30;;;;;;5072656;28;20074;-46
2022/08/26 02:54:49;;;;;;;45.15;32.33;;;20.50;78.50;;;;;;5072740;28;20020;-47
2022/08/26 02:57:15;;;;;;;46.47;34.97;;;20.50;78.90;;;;;;5072671;28;20013;-47
2022/08/26 02:59:41;;;;;;;52.15;38.97;;;20.50;79.10;;;;;;5072662;28;20071;-46
2022/08/26 03:02:09;;;;;;;49.40;38.40;;;20.50;79.60;;;;;;5071937;28;20047;-46
2022/08/26 03:04:36;;;;;;;51.88;38.60;;;20.50;79.70;;;;;;5072680;28;20036;-48
2022/08/26 03:07:03;;;;;;;56.47;41.47;;;20.50;79.90;;;;;;5072828;28;20028;-46
2022/08/26 03:09:29;;;;;;;51.92;39.15;;;20.50;80.00;;;;;;5072760;28;20103;-47
2022/08/26 03:11:54;;;;;;;57.00;42.45;;;20.30;80.50;;;;;;5072496;28;20108;-46
2022/08/26 03:14:22;;;;;;;59.50;41.90;;;20.30;80.80;;;;;;5076774;28;20016;-47
2022/08/26 03:16:50;;;;;;;53.70;42.75;;;20.30;81.10;;;;;;5076547;28;20025;-48
2022/08/26 03:19:16;;;;;;;56.50;39.17;;;20.30;81.30;;;;;;5075848;28;20384;-49
2022/08/26 03:21:42;;;;;;;56.75;39.22;;;20.20;81.70;;;;;;5075468;28;20394;-47
2022/08/26 03:24:10;;;;;;;52.80;39.42;;;20.00;82.00;;;;;;5076841;28;20520;-47
2022/08/26 03:26:36;;;;;;;50.42;38.10;;;20.00;82.20;;;;;;5076579;28;20055;-49
2022/08/26 03:31:46;;;;;;;54.47;42.90;;;19.90;82.60;;;;;;5076586;28;20034;-46
2022/08/26 03:34:12;;;;;;;60.13;45.65;;;19.90;82.80;;;;;;5076357;28;20383;-47
2022/08/26 03:36:38;;;;;;;64.95;48.30;;;20.00;83.10;;;;;;5076450;28;20457;-47
2022/08/26 03:39:05;;;;;;;67.13;48.72;;;20.00;83.40;;;;;;5076348;28;20081;-48
2022/08/26 03:41:33;;;;;;;68.18;50.38;;;20.00;83.60;;;;;;5076151;28;20459;-47
2022/08/26 03:43:58;;;;;;;73.60;51.10;;;20.00;83.50;;;;;;5076304;28;20468;-48
2022/08/26 03:46:24;;;;;;;65.93;49.58;;;20.00;83.70;;;;;;5075981;28;20024;-49
2022/08/26 03:48:49;;;;;;;68.88;49.42;;;19.80;84.30;;;;;;5076305;28;20157;-47
2022/08/26 03:51:17;;;;;;;70.30;50.70;;;19.80;84.50;;;;;;5076103;28;20503;-48
2022/08/26 03:53:44;;;;;;;73.70;50.90;;;19.80;84.90;;;;;;5076309;28;20094;-47
2022/08/26 03:56:09;;;;;;;68.57;52.20;;;19.80;85.10;;;;;;5074820;28;20025;-47
2022/08/26 03:58:36;;;;;;;74.43;52.42;;;19.80;85.50;;;;;;5075915;28;20064;-47
2022/08/26 04:01:02;;;;;;;75.70;55.92;;;20.00;85.50;;;;;;5075792;28;20055;-47
2022/08/26 04:06:11;;;;;;;85.95;57.63;;;20.20;85.50;;;;;;5076162;28;20116;-48
2022/08/26 04:08:37;;;;;;;92.00;64.80;;;20.30;85.00;;;;;;5075931;28;20060;-48
2022/08/26 04:11:03;;;;;;;78.82;58.42;;;20.40;85.20;;;;;;5075796;28;20085;-48
2022/08/26 04:13:29;;;;;;;89.18;62.58;;;20.30;85.20;;;;;;5076090;28;20025;-47
2022/08/26 04:15:56;;;;;;;83.22;57.97;;;20.50;85.20;;;;;;5075651;28;20464;-47
2022/08/26 04:18:22;;;;;;;86.95;62.83;;;20.50;85.10;;;;;;5075556;28;20147;-47
2022/08/26 04:20:49;;;;;;;94.65;64.50;;;20.50;85.20;;;;;;5075627;28;20060;-48
2022/08/26 18:43:24;;;;;;;4.35;2.45;;;21.50;73.20;;;;;;5111087;27;20426;-46
2022/08/26 18:46:00;;;;;;;6.70;2.53;;;21.50;73.30;;;;;;5108806;28;20489;-47
2022/08/26 18:48:26;;;;;;;5.15;2.10;;;21.60;73.00;;;;;;5110596;28;20362;-47
2022/08/26 18:50:52;;;;;;;12.52;2.80;;;21.70;72.80;;;;;;5110288;28;20047;-47
2022/08/26 18:53:17;;;;;;;6.93;2.35;;;21.80;72.30;;;;;;5110691;28;20460;-47
2022/08/26 18:55:43;;;;;;;2.20;1.67;;;21.80;72.00;;;;;;5108643;28;20028;-49
2022/08/26 18:58:08;;;;;;;7.70;3.25;;;21.90;72.00;;;;;;5109098;28;20522;-49
2022/08/26 19:00:34;;;;;;;4.63;2.20;;;21.90;71.80;;;;;;5110262;28;20107;-47
2022/08/26 19:03:00;;;;;;;6.07;2.22;;;21.80;72.10;;;;;;5109938;28;20107;-48
2022/08/26 19:05:26;;;;;;;6.63;2.50;;;21.80;72.40;;;;;;5108602;28;20459;-48
2022/08/26 19:07:51;;;;;;;9.90;4.43;;;21.80;72.50;;;;;;5110126;28;20066;-48
2022/08/26 19:10:17;;;;;;;5.32;2.40;;;21.90;72.40;;;;;;5110002;28;20112;-46
2022/08/26 19:12:43;;;;;;;6.95;2.03;;;21.90;72.30;;;;;;5110216;28;20055;-47
2022/08/26 19:15:09;;;;;;;3.58;1.95;;;21.80;72.40;;;;;;5108161;28;20035;-48
2022/08/26 19:17:35;;;;;;;7.22;2.53;;;21.80;72.60;;;;;;5108524;28;20024;-47
2022/08/26 19:20:00;;;;;;;8.15;1.88;;;21.80;72.80;;;;;;5110000;28;20472;-49
2022/08/26 19:22:26;;;;;;;5.60;2.00;;;21.80;72.90;;;;;;5110094;28;20106;-47
2022/08/26 19:24:52;;;;;;;11.25;2.25;;;21.70;73.00;;;;;;5109321;28;20019;-48
2022/08/26 19:27:17;;;;;;;10.55;3.08;;;21.80;73.00;;;;;;5109894;28;20016;-50
2022/08/26 19:29:43;;;;;;;9.35;3.17;;;21.80;72.70;;;;;;5110108;28;20028;-47
2022/08/26 19:32:09;;;;;;;2.83;1.70;;;21.80;72.80;;;;;;5109940;28;20507;-47
2022/08/26 19:34:35;;;;;;;7.07;2.03;;;21.80;72.50;;;;;;5110080;28;20039;-46
2022/08/26 19:37:01;;;;;;;7.05;2.10;;;21.70;72.50;;;;;;5108866;28;20024;-46
2022/08/26 19:39:27;;;;;;;12.68;2.03;;;21.50;72.90;;;;;;5110061;28;20364;-47
2022/08/26 19:41:53;;;;;;;9.25;2.08;;;21.50;73.20;;;;;;5109120;28;20040;-46
2022/08/26 19:47:07;;;;;;;3.95;1.60;;;21.50;73.40;;;;;;5109813;28;20494;-49
2022/08/26 19:49:33;;;;;;;4.55;2.33;;;21.30;73.80;;;;;;5108190;28;20024;-47
2022/08/26 19:52:02;;;;;;;2.40;1.50;;;21.40;73.70;;;;;;5109574;28;20444;-47
2022/08/26 19:54:28;;;;;;;5.65;2.20;;;21.30;73.60;;;;;;5098123;28;20456;-47
2022/08/26 19:56:53;;;;;;;3.13;1.85;;;21.30;73.80;;;;;;5096296;28;20157;-47
2022/08/26 19:59:19;;;;;;;10.82;2.40;;;21.30;74.10;;;;;;5095518;28;20063;-47
2022/08/26 20:01:45;;;;;;;4.32;2.20;;;21.20;74.30;;;;;;5095587;28;20174;-47
2022/08/26 20:04:11;;;;;;;6.43;2.85;;;21.20;74.20;;;;;;5095784;28;20028;-49
2022/08/26 20:06:37;;;;;;;9.90;2.22;;;21.10;74.60;;;;;;5094418;28;20026;-46
2022/08/26 20:09:02;;;;;;;8.77;2.58;;;21.00;74.80;;;;;;5095794;28;20023;-48
2022/08/26 20:11:28;;;;;;;3.20;1.65;;;20.90;75.10;;;;;;5095372;28;20441;-48
2022/08/26 20:13:55;;;;;;;6.43;2.03;;;21.10;74.90;;;;;;5094206;28;20024;-47
2022/08/26 20:16:22;;;;;;;8.57;2.08;;;20.80;75.50;;;;;;5095758;28;20031;-47
2022/08/26 20:21:37;;;;;;;7.15;2.78;;;20.60;76.60;;;;;;5095622;28;20478;-46
2022/08/26 20:24:14;;;;;;;8.98;2.63;;;20.50;77.10;;;;;;5077437;28;20036;-47
2022/08/26 20:26:41;;;;;;;12.23;3.45;;;20.60;77.00;;;;;;5095776;28;20026;-47
2022/08/26 20:29:09;;;;;;;10.13;2.70;;;20.70;76.60;;;;;;5093990;28;20031;-46
2022/08/26 20:31:35;;;;;;;5.57;2.50;;;20.70;76.90;;;;;;5095219;28;20031;-46
2022/08/26 20:34:01;;;;;;;13.80;4.72;;;20.50;77.60;;;;;;5095164;28;20081;-47
2022/08/26 20:36:28;;;;;;;10.65;2.42;;;20.40;78.20;;;;;;5095265;28;20110;-47
2022/08/26 20:38:54;;;;;;;5.57;3.42;;;20.40;78.10;;;;;;5094973;28;20031;-47
2022/08/26 20:41:24;;;;;;;13.00;3.42;;;20.30;78.90;;;;;;5094726;28;20067;-48
2022/08/26 20:43:50;;;;;;;10.90;3.50;;;20.20;79.20;;;;;;5094869;28;20016;-47
2022/08/26 20:46:15;;;;;;;7.30;2.92;;;20.30;79.60;;;;;;5093605;28;20031;-46
2022/08/26 20:48:42;;;;;;;7.03;3.70;;;20.30;79.40;;;;;;5094817;28;20016;-47
2022/08/26 20:51:09;;;;;;;6.00;3.25;;;20.30;79.30;;;;;;5093378;28;20024;-47
2022/08/26 20:53:35;;;;;;;7.68;3.95;;;20.30;79.60;;;;;;5093351;28;20027;-47
2022/08/26 20:56:04;;;;;;;8.93;3.72;;;20.20;79.70;;;;;;5093275;28;20020;-48
2022/08/26 20:58:30;;;;;;;5.03;3.00;;;20.10;80.30;;;;;;5095174;28;20119;-46
2022/08/26 21:00:56;;;;;;;10.38;4.03;;;20.00;80.60;;;;;;5094946;28;20032;-48
2022/08/26 21:03:22;;;;;;;4.63;3.08;;;19.90;80.50;;;;;;5094829;28;20024;-47
2022/08/26 21:05:47;;;;;;;7.35;3.28;;;19.90;80.40;;;;;;5093408;28;20032;-47
2022/08/26 21:08:13;;;;;;;5.38;3.47;;;19.80;80.80;;;;;;5094501;28;20020;-48
2022/08/26 21:10:39;;;;;;;4.68;4.15;;;19.80;81.00;;;;;;5094441;28;20149;-50
2022/08/26 21:13:05;;;;;;;6.22;3.78;;;19.80;81.20;;;;;;5094676;28;20383;-47
2022/08/26 21:15:31;;;;;;;11.63;3.83;;;19.70;81.70;;;;;;5094593;28;20031;-46
2022/08/26 21:17:57;;;;;;;10.35;3.53;;;19.70;81.90;;;;;;5094404;28;20027;-49
2022/08/26 21:20:23;;;;;;;8.98;3.28;;;19.70;82.00;;;;;;5093452;28;20443;-48
2022/08/26 21:22:49;;;;;;;5.03;3.45;;;19.40;82.90;;;;;;5094169;28;20119;-48
2022/08/26 21:25:16;;;;;;;7.68;4.47;;;19.30;83.60;;;;;;5094662;28;20028;-49
2022/08/26 21:27:42;;;;;;;11.07;7.63;;;19.20;84.30;;;;;;5076939;28;20380;-48
2022/08/26 21:30:09;;;;;;;10.10;5.28;;;19.00;84.90;;;;;;5092884;28;20020;-47
2022/08/26 21:32:34;;;;;;;9.50;5.60;;;18.90;85.60;;;;;;5094136;28;20426;-46
2022/08/26 21:35:01;;;;;;;8.07;5.82;;;18.80;86.20;;;;;;5094786;28;20020;-46
2022/08/26 21:37:27;;;;;;;12.23;6.45;;;18.80;86.90;;;;;;5092678;28;20024;-46
2022/08/26 21:39:55;;;;;;;9.68;6.40;;;18.60;87.30;;;;;;5094027;28;20472;-45
2022/08/26 21:42:23;;;;;;;7.80;5.88;;;18.50;87.90;;;;;;5093701;28;20435;-46
2022/08/26 21:44:50;;;;;;;7.55;5.15;;;18.40;88.40;;;;;;5094325;28;20027;-46
2022/08/26 21:47:16;;;;;;;12.77;6.18;;;18.40;88.80;;;;;;5094408;28;20031;-57
2022/08/26 21:49:42;;;;;;;11.95;6.95;;;18.30;88.90;;;;;;5075899;28;20024;-47
2022/08/26 21:52:09;;;;;;;8.52;6.40;;;18.30;89.20;;;;;;5092667;28;20061;-47
2022/08/26 21:54:35;;;;;;;9.07;7.43;;;18.20;89.40;;;;;;5092746;28;20020;-46
2022/08/26 21:57:01;;;;;;;16.10;6.97;;;18.20;89.70;;;;;;5093789;28;20028;-48
2022/08/26 21:59:27;;;;;;;13.25;7.47;;;18.20;90.00;;;;;;5093771;28;20032;-46
2022/08/26 22:01:53;;;;;;;10.98;7.35;;;18.20;90.20;;;;;;5092066;28;20028;-46
2022/08/26 22:04:19;;;;;;;8.77;6.40;;;18.20;90.30;;;;;;5092345;28;20016;-46
2022/08/26 22:06:48;;;;;;;12.30;6.97;;;18.30;90.40;;;;;;5092299;28;20024;-47
2022/08/26 22:09:16;;;;;;;9.10;6.80;;;18.20;90.30;;;;;;5093552;28;20016;-48
2022/08/26 22:11:43;;;;;;;9.98;7.05;;;18.20;90.40;;;;;;5092221;28;20020;-47
2022/08/26 22:14:09;;;;;;;8.55;7.10;;;18.20;90.60;;;;;;5093772;28;20031;-47
2022/08/26 22:16:35;;;;;;;12.32;8.25;;;18.20;90.40;;;;;;5093140;28;20102;-46
2022/08/26 22:19:00;;;;;;;10.02;7.57;;;18.20;90.50;;;;;;5092128;28;20032;-46
2022/08/26 22:21:27;;;;;;;11.20;7.88;;;18.20;90.80;;;;;;5093644;28;20127;-47
2022/08/26 22:23:54;;;;;;;11.75;7.00;;;18.10;90.70;;;;;;5093694;28;20020;-46
2022/08/26 22:26:22;;;;;;;8.82;6.60;;;18.10;90.80;;;;;;5092021;28;20430;-46
2022/08/26 22:28:48;;;;;;;9.80;8.18;;;18.10;90.90;;;;;;5093415;28;20079;-47
2022/08/26 22:31:15;;;;;;;11.80;8.27;;;18.10;90.70;;;;;;5093267;28;20016;-45
2022/08/26 22:33:43;;;;;;;12.48;8.75;;;18.20;90.80;;;;;;5093196;28;20032;-46
2022/08/26 22:36:20;;;;;;;13.98;8.23;;;18.10;90.70;;;;;;5093117;28;20024;-47
2022/08/26 22:38:47;;;;;;;12.63;8.65;;;18.00;90.80;;;;;;5093172;28;20023;-47
2022/08/26 22:41:13;;;;;;;15.02;8.43;;;18.00;90.90;;;;;;5092975;28;20119;-47
2022/08/26 22:43:39;;;;;;;15.50;8.25;;;18.10;90.80;;;;;;5091884;28;20016;-46
2022/08/26 22:46:08;;;;;;;12.65;8.13;;;18.10;90.80;;;;;;5093457;28;20024;-46
2022/08/26 22:48:34;;;;;;;9.52;6.82;;;18.20;90.90;;;;;;5091700;28;20058;-47
2022/08/26 22:51:00;;;;;;;25.08;9.48;;;18.20;90.50;;;;;;5091749;28;20093;-48
2022/08/26 22:53:26;;;;;;;11.30;7.40;;;18.20;90.40;;;;;;5093060;28;20032;-47
2022/08/26 22:55:53;;;;;;;13.32;6.65;;;18.20;90.50;;;;;;5093164;28;20051;-47
2022/08/26 22:58:19;;;;;;;13.13;6.78;;;18.10;90.30;;;;;;5092284;28;20028;-49
2022/08/26 23:00:46;;;;;;;15.27;4.78;;;18.10;90.20;;;;;;5093007;28;20024;-45
2022/08/26 23:03:13;;;;;;;13.93;5.20;;;18.00;90.10;;;;;;5092916;28;20034;-46
2022/08/26 23:05:40;;;;;;;9.85;3.92;;;18.00;90.10;;;;;;5093671;28;20024;-47
2022/08/26 23:08:07;;;;;;;10.38;4.88;;;18.00;90.20;;;;;;5093041;28;20388;-47
2022/08/26 23:10:33;;;;;;;7.80;4.10;;;18.00;90.20;;;;;;5092829;28;20077;-46
2022/08/26 23:12:59;;;;;;;11.13;4.68;;;18.10;90.00;;;;;;5093137;28;20028;-47
2022/08/26 23:15:25;;;;;;;18.83;4.85;;;18.10;90.00;;;;;;5093084;28;20031;-47
2022/08/26 23:17:50;;;;;;;10.43;4.03;;;18.10;89.80;;;;;;5092737;28;20039;-46
2022/08/26 23:20:18;;;;;;;9.30;3.97;;;18.10;89.50;;;;;;5093125;28;20027;-48
2022/08/26 23:22:44;;;;;;;10.85;4.05;;;18.10;89.40;;;;;;5093087;28;20051;-45
2022/08/26 23:25:10;;;;;;;19.90;5.45;;;18.10;89.20;;;;;;5058362;28;20020;-45
2022/08/26 23:27:38;;;;;;;9.13;4.25;;;18.10;89.10;;;;;;5091685;28;20561;-48
2022/08/26 23:30:05;;;;;;;9.57;3.67;;;18.20;89.10;;;;;;5096305;28;20067;-47
2022/08/26 23:32:31;;;;;;;13.60;5.63;;;18.20;88.90;;;;;;5096564;28;20504;-46
2022/08/26 23:34:59;;;;;;;15.02;4.93;;;18.10;89.00;;;;;;5095193;28;20024;-50
2022/08/26 23:37:30;;;;;;;10.18;3.72;;;18.20;89.00;;;;;;5096605;28;20373;-47
2022/08/26 23:39:56;;;;;;;6.80;3.50;;;18.10;88.70;;;;;;5097223;28;20524;-47
2022/08/26 23:42:22;;;;;;;7.50;3.65;;;18.10;88.90;;;;;;5094653;28;20055;-46
2022/08/26 23:44:48;;;;;;;12.90;3.83;;;18.10;89.10;;;;;;5096260;28;20099;-48
2022/08/26 23:47:14;;;;;;;6.65;3.70;;;18.10;88.80;;;;;;5096295;28;20494;-46
2022/08/26 23:49:40;;;;;;;10.35;3.75;;;18.20;88.50;;;;;;5096329;28;20048;-47
2022/08/26 23:54:51;;;;;;;6.85;3.55;;;18.10;88.70;;;;;;5096153;28;20568;-48
2022/08/26 23:57:20;;;;;;;9.55;3.42;;;18.10;88.90;;;;;;5096203;28;20496;-46
2022/08/26 23:59:47;;;;;;;8.85;3.95;;;18.20;88.80;;;;;;5096102;28;20111;-48
